createdAt,value
2018-11-02T00:01:21.409Z,60.73
2018-11-02T00:03:51.505Z,60.63
2018-11-02T00:06:21.668Z,60.56
2018-11-02T00:08:51.535Z,60.27
2018-11-02T00:11:21.854Z,60.26
2018-11-02T00:13:52.845Z,60.05
2018-11-02T00:16:23.219Z,60.01
2018-11-02T00:18:53.198Z,60.38
2018-11-02T00:21:22.961Z,61.01
2018-11-02T00:23:52.749Z,61.75
2018-11-02T00:26:22.570Z,62.48
2018-11-02T00:28:52.587Z,62.85
2018-11-02T00:31:22.985Z,62.95
2018-11-02T00:33:52.910Z,63.57
2018-11-02T00:36:22.833Z,64.08
2018-11-02T00:38:52.636Z,63.96
2018-11-02T00:41:22.572Z,64.09
2018-11-02T00:43:52.803Z,64.04
2018-11-02T00:46:22.914Z,63.50
2018-11-02T00:48:52.803Z,64.18
2018-11-02T00:51:22.716Z,64.46
2018-11-02T00:53:52.461Z,64.49
2018-11-02T00:56:22.569Z,64.08
2018-11-02T00:58:52.618Z,64.19
2018-11-02T01:01:22.489Z,64.20
2018-11-02T01:03:52.707Z,64.24
2018-11-02T01:06:22.586Z,64.84
2018-11-02T01:08:52.977Z,64.18
2018-11-02T01:11:22.952Z,64.94
2018-11-02T01:13:54.040Z,64.93
2018-11-02T01:16:23.959Z,65.41
2018-11-02T01:18:54.245Z,64.82
2018-11-02T01:21:24.090Z,65.03
2018-11-02T01:23:53.866Z,65.38
2018-11-02T01:26:23.741Z,65.37
2018-11-02T01:28:53.683Z,65.23
2018-11-02T01:31:24.048Z,65.42
2018-11-02T01:33:53.802Z,65.32
2018-11-02T01:36:24.437Z,65.38
2018-11-02T01:38:54.938Z,65.65
2018-11-02T01:41:26.448Z,65.39
2018-11-02T01:43:56.984Z,65.62
2018-11-02T01:46:28.657Z,65.35
2018-11-02T01:48:59.142Z,65.48
2018-11-02T01:51:30.154Z,65.67
2018-11-02T01:54:00.972Z,65.55
2018-11-02T01:57:34.892Z,66.08
2018-11-02T02:00:04.662Z,66.63
2018-11-02T02:02:35.061Z,66.71
2018-11-02T02:05:04.904Z,66.79
2018-11-02T02:07:34.753Z,67.16
2018-11-02T02:10:04.724Z,66.82
2018-11-02T02:12:34.549Z,67.06
2018-11-02T02:15:04.986Z,67.15
2018-11-02T02:17:35.340Z,66.92
2018-11-02T02:20:07.113Z,66.95
2018-11-02T02:22:37.287Z,67.03
2018-11-02T02:25:08.129Z,66.86
2018-11-02T02:27:38.322Z,67.58
2018-11-02T02:30:11.641Z,67.35
2018-11-02T02:32:41.489Z,67.79
2018-11-02T02:35:12.014Z,67.84
2018-11-02T02:37:42.195Z,67.96
2018-11-02T02:40:13.317Z,67.90
2018-11-02T02:42:43.891Z,67.99
2018-11-02T02:45:14.022Z,68.19
2018-11-02T02:47:43.846Z,68.21
2018-11-02T02:50:14.721Z,68.54
2018-11-02T02:52:45.210Z,68.89
2018-11-02T02:55:15.698Z,68.63
2018-11-02T02:57:45.655Z,68.44
2018-11-02T03:00:15.949Z,68.54
2018-11-02T03:02:45.793Z,68.77
2018-11-02T03:05:15.767Z,69.02
2018-11-02T03:07:45.765Z,69.06
2018-11-02T03:10:15.553Z,69.58
2018-11-02T03:12:45.529Z,69.78
2018-11-02T03:15:15.596Z,69.89
2018-11-02T03:17:45.442Z,69.76
2018-11-02T03:20:15.642Z,69.79
2018-11-02T03:22:45.558Z,70.05
2018-11-02T03:25:15.590Z,70.23
2018-11-02T03:27:45.653Z,70.22
2018-11-02T03:30:15.466Z,70.00
2018-11-02T03:32:45.649Z,69.71
2018-11-02T03:35:15.616Z,69.65
2018-11-02T03:37:45.518Z,70.01
2018-11-02T03:40:15.723Z,69.89
2018-11-02T03:42:45.541Z,69.86
2018-11-02T03:45:15.741Z,69.99
2018-11-02T03:47:45.519Z,70.09
2018-11-02T03:50:15.569Z,70.06
2018-11-02T03:52:45.489Z,70.18
2018-11-02T03:55:15.493Z,70.09
2018-11-02T03:57:45.682Z,70.27
2018-11-02T04:00:15.772Z,70.10
2018-11-02T04:02:45.878Z,70.25
2018-11-02T04:05:16.131Z,70.22
2018-11-02T04:07:46.374Z,70.55
2018-11-02T04:10:16.530Z,70.98
2018-11-02T04:12:46.472Z,71.51
2018-11-02T04:15:16.479Z,71.58
2018-11-02T04:17:46.685Z,71.66
2018-11-02T04:20:20.592Z,71.87
2018-11-02T04:22:50.572Z,71.61
2018-11-02T04:25:20.516Z,71.21
2018-11-02T04:27:50.496Z,71.48
2018-11-02T04:30:20.481Z,71.37
2018-11-02T04:32:50.549Z,71.56
2018-11-02T04:35:20.524Z,71.32
2018-11-02T04:40:13.250Z,72.04
2018-11-02T04:42:43.170Z,71.88
2018-11-02T04:45:13.300Z,72.03
2018-11-02T04:47:43.152Z,72.34
2018-11-02T04:50:13.405Z,72.35
2018-11-02T04:52:43.876Z,72.37
2018-11-02T04:55:13.831Z,72.68
2018-11-02T04:57:44.687Z,72.73
2018-11-02T05:00:15.117Z,72.70
2018-11-02T05:02:46.149Z,72.28
2018-11-02T05:05:16.959Z,71.97
2018-11-02T05:07:48.318Z,72.50
2018-11-02T05:10:19.024Z,73.16
2018-11-02T05:12:50.983Z,73.04
2018-11-02T05:15:21.263Z,73.28
2018-11-02T05:17:52.113Z,73.26
2018-11-02T05:20:23.259Z,73.19
2018-11-02T05:22:54.242Z,73.03
2018-11-02T05:25:24.948Z,72.83
2018-11-02T05:27:56.586Z,72.94
2018-11-02T05:31:30.002Z,73.28
2018-11-02T05:33:59.833Z,73.46
2018-11-02T05:36:29.691Z,73.57
2018-11-02T05:38:59.558Z,73.59
2018-11-02T05:41:29.525Z,73.82
2018-11-02T05:43:59.607Z,74.09
2018-11-02T05:46:29.574Z,73.65
2018-11-02T05:48:59.478Z,73.57
2018-11-02T05:51:29.646Z,73.87
2018-11-02T05:53:59.485Z,73.75
2018-11-02T05:56:29.929Z,74.56
2018-11-02T05:58:59.775Z,75.02
2018-11-02T06:01:29.738Z,75.17
2018-11-02T06:03:59.884Z,75.56
2018-11-02T06:06:29.608Z,75.40
2018-11-02T06:08:59.538Z,75.20
2018-11-02T06:11:29.554Z,75.27
2018-11-02T06:13:59.467Z,75.27
2018-11-02T06:16:29.625Z,75.12
2018-11-02T06:18:59.408Z,75.14
2018-11-02T06:21:29.526Z,75.06
2018-11-02T06:24:02.837Z,75.16
2018-11-02T06:26:32.754Z,75.18
2018-11-02T06:29:02.577Z,74.82
2018-11-02T06:31:32.559Z,74.85
2018-11-02T06:34:02.589Z,74.89
2018-11-02T06:36:32.709Z,75.13
2018-11-02T06:39:02.616Z,75.17
2018-11-02T06:41:32.881Z,75.44
2018-11-02T06:44:02.694Z,75.75
2018-11-02T06:46:32.650Z,75.78
2018-11-02T06:49:02.539Z,75.44
2018-11-02T06:51:32.521Z,75.67
2018-11-02T06:54:02.681Z,75.63
2018-11-02T06:56:32.572Z,76.13
2018-11-02T06:59:02.564Z,75.93
2018-11-02T07:01:32.504Z,75.76
2018-11-02T07:04:02.550Z,75.48
2018-11-02T07:06:32.530Z,75.53
2018-11-02T07:09:02.645Z,75.65
2018-11-02T07:11:32.529Z,75.31
2018-11-02T07:14:02.559Z,76.05
2018-11-02T07:16:32.449Z,75.15
2018-11-02T07:19:02.760Z,75.04
2018-11-02T07:21:32.541Z,74.73
2018-11-02T07:24:02.576Z,74.79
2018-11-02T07:26:32.629Z,74.60
2018-11-02T07:29:02.476Z,74.81
2018-11-02T07:31:32.546Z,74.42
2018-11-02T07:34:02.403Z,74.26
2018-11-02T07:36:32.401Z,74.12
2018-11-02T07:39:17.936Z,74.32
2018-11-02T07:41:47.783Z,74.41
2018-11-02T07:44:17.929Z,74.58
2018-11-02T07:46:54.610Z,73.86
2018-11-02T07:49:24.693Z,74.14
2018-11-02T07:51:54.589Z,73.71
2018-11-02T07:54:24.577Z,73.71
2018-11-02T07:56:54.490Z,73.06
2018-11-02T07:59:24.562Z,72.97
2018-11-02T08:01:54.528Z,72.06
2018-11-02T08:04:24.557Z,72.33
2018-11-02T08:06:55.070Z,71.73
2018-11-02T08:09:24.891Z,71.20
2018-11-02T08:11:54.935Z,70.50
2018-11-02T08:14:24.826Z,70.61
2018-11-02T08:16:54.520Z,70.26
2018-11-02T08:19:24.441Z,69.19
2018-11-02T08:21:54.564Z,69.20
2018-11-02T08:24:24.524Z,68.78
2018-11-02T08:26:55.377Z,67.68
2018-11-02T08:29:25.421Z,66.99
2018-11-02T08:31:55.985Z,66.63
2018-11-02T08:34:26.185Z,66.96
2018-11-02T08:36:56.341Z,65.54
2018-11-02T08:39:26.222Z,64.80
2018-11-02T08:41:56.193Z,64.19
2018-11-02T08:44:25.991Z,64.51
2018-11-02T08:46:55.601Z,61.83
2018-11-02T08:49:25.497Z,63.27
2018-11-02T08:51:55.732Z,62.66
2018-11-02T08:54:25.545Z,61.53
2018-11-02T08:56:55.880Z,62.07
2018-11-02T08:59:29.525Z,61.39
2018-11-02T09:01:59.775Z,60.03
2018-11-02T09:04:29.531Z,59.35
2018-11-02T09:06:59.672Z,60.25
2018-11-02T09:09:29.464Z,59.45
2018-11-02T09:11:59.979Z,58.48
2018-11-02T09:14:29.796Z,59.10
2018-11-02T09:16:59.664Z,59.10
2018-11-02T09:19:29.572Z,59.10
2018-11-02T09:22:00.017Z,58.60
2018-11-02T09:24:29.807Z,58.31
2018-11-02T09:27:00.336Z,57.52
2018-11-02T09:29:31.052Z,57.72
2018-11-02T09:32:02.055Z,56.39
2018-11-02T09:34:32.916Z,56.29
2018-11-02T09:37:04.420Z,56.82
2018-11-02T09:39:35.026Z,57.21
2018-11-02T09:42:06.357Z,54.48
2018-11-02T09:44:37.153Z,54.73
2018-11-02T09:47:08.443Z,54.81
2018-11-02T09:49:39.155Z,53.94
2018-11-02T09:52:10.162Z,54.76
2018-11-02T09:54:40.965Z,53.97
2018-11-02T09:57:12.444Z,54.63
2018-11-02T09:59:42.983Z,54.35
2018-11-02T10:02:14.911Z,52.03
2018-11-02T10:04:45.160Z,52.33
2018-11-02T10:07:16.093Z,51.96
2018-11-02T10:09:46.914Z,53.30
2018-11-02T10:12:18.314Z,52.62
2018-11-02T10:14:48.925Z,52.81
2018-11-02T10:17:20.552Z,53.53
2018-11-02T10:19:51.014Z,53.09
2018-11-02T10:22:22.048Z,51.83
2018-11-02T10:24:53.209Z,52.65
2018-11-02T10:27:24.251Z,52.35
2018-11-02T10:29:55.007Z,50.28
2018-11-02T10:32:26.216Z,51.15
2018-11-02T10:34:57.235Z,51.39
2018-11-02T10:37:28.090Z,50.75
2018-11-02T10:39:59.165Z,50.86
2018-11-02T10:42:30.229Z,49.11
2018-11-02T10:45:01.321Z,48.89
2018-11-02T10:47:32.444Z,49.42
2018-11-02T10:50:02.992Z,48.17
2018-11-02T10:52:34.014Z,49.28
2018-11-02T10:55:05.456Z,48.63
2018-11-02T10:57:36.128Z,48.17
2018-11-02T11:00:14.036Z,47.46
2018-11-02T11:02:51.628Z,47.80
2018-11-02T11:05:22.140Z,47.07
2018-11-02T11:07:52.265Z,47.42
2018-11-02T11:10:22.115Z,47.22
2018-11-02T11:12:52.136Z,46.03
2018-11-02T11:15:22.058Z,46.01
2018-11-02T11:17:51.846Z,46.18
2018-11-02T11:20:21.830Z,45.49
2018-11-02T11:22:51.704Z,46.18
2018-11-02T11:25:21.605Z,45.95
2018-11-02T11:27:51.534Z,44.63
2018-11-02T11:30:22.078Z,44.89
2018-11-02T11:32:52.954Z,44.36
2018-11-02T11:35:23.283Z,44.25
2018-11-02T11:37:53.109Z,43.51
2018-11-02T11:40:23.611Z,44.24
2018-11-02T11:42:54.166Z,43.72
2018-11-02T11:45:25.799Z,42.38
2018-11-02T11:47:56.377Z,42.59
2018-11-02T11:50:27.102Z,42.46
2018-11-02T11:52:58.319Z,42.55
2018-11-02T11:55:29.058Z,43.03
2018-11-02T11:58:00.021Z,43.21
2018-11-02T12:00:31.017Z,43.71
2018-11-02T12:03:02.258Z,43.14
2018-11-02T12:05:33.186Z,42.93
2018-11-02T12:08:04.025Z,43.13
2018-11-02T12:10:35.116Z,43.19
2018-11-02T12:13:06.210Z,41.36
2018-11-02T12:15:37.503Z,41.01
2018-11-02T12:18:08.159Z,41.02
2018-11-02T12:20:39.130Z,41.12
2018-11-02T12:23:09.942Z,41.07
2018-11-02T12:25:41.399Z,41.22
2018-11-02T12:28:11.247Z,42.13
2018-11-02T12:30:42.053Z,41.79
2018-11-02T12:33:13.015Z,42.23
2018-11-02T12:35:43.981Z,41.51
2018-11-02T12:38:15.358Z,42.68
2018-11-02T12:40:45.922Z,41.87
2018-11-02T12:43:17.497Z,42.16
2018-11-02T12:45:48.152Z,41.76
2018-11-02T12:48:19.069Z,42.02
2018-11-02T12:50:49.873Z,41.35
2018-11-02T12:53:21.248Z,40.65
2018-11-02T12:55:52.043Z,41.46
2018-11-02T12:58:23.581Z,41.58
2018-11-02T13:00:54.276Z,42.23
2018-11-02T13:03:25.192Z,41.78
2018-11-02T13:05:56.014Z,41.52
2018-11-02T13:08:27.519Z,41.92
2018-11-02T13:10:57.976Z,42.20
2018-11-02T13:13:29.604Z,41.75
2018-11-02T13:16:00.178Z,42.01
2018-11-02T13:18:31.358Z,41.45
2018-11-02T13:21:02.062Z,41.33
2018-11-02T13:23:33.109Z,41.64
2018-11-02T13:26:04.147Z,40.96
2018-11-02T13:28:35.221Z,40.60
2018-11-02T13:31:06.080Z,41.28
2018-11-02T13:33:37.018Z,40.54
2018-11-02T13:36:08.376Z,39.84
2018-11-02T13:38:39.067Z,40.11
2018-11-02T13:41:09.987Z,39.84
2018-11-02T13:43:41.054Z,38.99
2018-11-02T13:46:12.080Z,39.83
2018-11-02T13:48:43.103Z,40.00
2018-11-02T13:51:14.047Z,39.75
2018-11-02T13:53:45.463Z,40.05
2018-11-02T13:56:16.069Z,40.49
2018-11-02T13:58:48.493Z,41.16
2018-11-02T14:01:18.542Z,41.22
2018-11-02T14:03:49.326Z,42.01
2018-11-02T14:06:20.097Z,42.54
2018-11-02T14:08:51.101Z,42.93
2018-11-02T14:11:22.440Z,43.22
2018-11-02T14:13:53.205Z,43.63
2018-11-02T14:16:24.096Z,43.80
2018-11-02T14:18:55.471Z,44.44
2018-11-02T14:21:26.075Z,44.64
2018-11-02T14:23:57.063Z,44.83
2018-11-02T14:26:27.965Z,45.33
2018-11-02T14:28:59.422Z,45.45
2018-11-02T14:31:29.956Z,46.02
2018-11-02T14:34:01.584Z,46.06
2018-11-02T14:36:32.058Z,45.72
2018-11-02T14:39:03.458Z,46.00
2018-11-02T14:41:34.057Z,46.47
2018-11-02T14:44:05.162Z,46.86
2018-11-02T14:46:36.428Z,47.34
2018-11-02T14:49:07.609Z,47.47
2018-11-02T14:51:38.110Z,47.91
2018-11-02T14:54:09.188Z,47.69
2018-11-02T14:56:40.063Z,48.25
2018-11-02T14:59:11.479Z,48.48
2018-11-02T15:01:42.019Z,48.42
2018-11-02T15:04:13.397Z,48.60
2018-11-02T15:06:43.997Z,48.63
2018-11-02T15:09:15.466Z,48.78
2018-11-02T15:11:46.077Z,48.79
2018-11-02T15:14:17.412Z,49.63
2018-11-02T15:16:47.933Z,50.14
2018-11-02T15:19:19.701Z,50.17
2018-11-02T15:21:50.228Z,50.39
2018-11-02T15:24:21.076Z,51.13
2018-11-02T15:26:52.347Z,50.86
2018-11-02T15:29:23.079Z,51.25
2018-11-02T15:31:53.982Z,51.54
2018-11-02T15:34:25.088Z,51.65
2018-11-02T15:36:56.288Z,52.14
2018-11-02T15:39:27.399Z,52.04
2018-11-02T15:41:58.148Z,52.05
2018-11-02T15:44:29.200Z,52.38
2018-11-02T15:47:00.062Z,52.76
2018-11-02T15:49:31.528Z,53.27
2018-11-02T15:52:02.047Z,53.49
2018-11-02T15:54:33.548Z,53.36
2018-11-02T15:57:04.359Z,54.06
2018-11-02T15:59:35.255Z,54.22
2018-11-02T16:02:06.288Z,54.24
2018-11-02T16:04:37.197Z,54.46
2018-11-02T16:07:08.125Z,54.88
2018-11-02T16:09:39.074Z,55.00
2018-11-02T16:12:10.356Z,54.84
2018-11-02T16:14:41.277Z,55.30
2018-11-02T16:17:12.012Z,55.50
2018-11-02T16:19:43.490Z,55.57
2018-11-02T16:22:14.037Z,56.26
2018-11-02T16:24:45.285Z,56.44
2018-11-02T16:27:15.996Z,56.47
2018-11-02T16:29:47.329Z,56.55
2018-11-02T16:32:17.959Z,56.93
2018-11-02T16:34:49.508Z,57.02
2018-11-02T16:37:20.479Z,57.05
2018-11-02T16:39:51.205Z,57.53
2018-11-02T16:42:21.979Z,57.94
2018-11-02T16:44:53.574Z,57.86
2018-11-02T16:47:24.373Z,58.29
2018-11-02T16:49:54.996Z,58.53
2018-11-02T16:52:26.032Z,58.29
2018-11-02T16:54:57.468Z,58.57
2018-11-02T16:57:27.934Z,58.26
2018-11-02T16:59:59.350Z,58.52
2018-11-02T17:02:30.498Z,58.87
2018-11-02T17:05:01.482Z,58.40
2018-11-02T17:07:32.339Z,58.85
2018-11-02T17:10:03.025Z,59.12
2018-11-02T17:12:35.246Z,59.08
2018-11-02T17:15:12.534Z,59.04
2018-11-02T17:17:42.572Z,59.19
2018-11-02T17:20:15.543Z,59.10
2018-11-02T17:22:46.182Z,58.99
2018-11-02T17:25:16.075Z,59.35
2018-11-02T17:27:45.887Z,59.85
2018-11-02T17:30:17.091Z,60.13
2018-11-02T17:32:46.951Z,61.70
2018-11-02T17:35:16.843Z,61.58
2018-11-02T17:37:46.836Z,60.99
2018-11-02T17:40:17.267Z,61.20
2018-11-02T17:42:47.104Z,61.00
2018-11-02T17:45:16.989Z,60.89
2018-11-02T17:47:48.586Z,60.62
2018-11-02T17:50:19.154Z,62.77
2018-11-02T17:52:50.133Z,59.92
2018-11-02T17:55:20.997Z,58.46
2018-11-02T17:57:52.569Z,58.75
2018-11-02T18:00:23.090Z,59.22
2018-11-02T18:02:54.480Z,59.62
2018-11-02T18:05:25.460Z,60.04
2018-11-02T18:07:57.021Z,60.01
2018-11-02T18:10:26.937Z,62.27
2018-11-02T18:12:58.445Z,63.70
2018-11-02T18:15:29.081Z,60.64
2018-11-02T18:18:00.054Z,60.39
2018-11-02T18:20:31.342Z,60.43
2018-11-02T18:23:02.123Z,60.79
2018-11-02T18:25:36.836Z,60.84
2018-11-02T18:28:07.097Z,60.90
2018-11-02T18:30:37.152Z,61.28
2018-11-02T18:33:07.103Z,61.41
2018-11-02T18:35:37.394Z,61.89
2018-11-02T18:38:08.060Z,61.89
2018-11-02T18:40:39.426Z,61.98
2018-11-02T18:43:10.103Z,62.33
2018-11-02T18:45:41.226Z,62.12
2018-11-02T18:48:12.265Z,62.35
2018-11-02T18:50:43.960Z,62.43
2018-11-02T18:53:13.818Z,63.17
2018-11-02T18:55:45.416Z,64.71
2018-11-02T18:58:16.046Z,65.07
2018-11-02T19:00:48.060Z,63.40
2018-11-02T19:03:19.029Z,61.78
2018-11-02T19:05:49.354Z,61.91
2018-11-02T19:08:20.257Z,62.73
2018-11-02T19:10:51.876Z,62.61
2018-11-02T19:13:22.652Z,62.86
2018-11-02T19:15:54.076Z,63.55
2018-11-02T19:18:24.860Z,63.82
2018-11-02T19:20:56.716Z,64.15
2018-11-02T19:23:27.827Z,64.26
2018-11-02T19:25:59.152Z,64.37
2018-11-02T19:28:31.179Z,64.39
2018-11-02T19:31:03.462Z,64.91
2018-11-02T19:33:35.831Z,64.64
2018-11-02T19:36:07.248Z,64.49
2018-11-02T19:38:38.554Z,64.70
2018-11-02T19:41:10.670Z,64.87
2018-11-02T19:43:41.521Z,65.40
2018-11-02T19:46:14.351Z,65.27
2018-11-02T19:48:47.332Z,65.18
2018-11-02T19:51:18.684Z,65.13
2018-11-02T19:53:50.531Z,65.47
2018-11-02T19:56:21.484Z,65.66
2018-11-02T19:58:53.651Z,65.69
2018-11-02T20:01:25.093Z,65.58
2018-11-02T20:03:56.062Z,65.93
2018-11-02T20:06:28.959Z,66.02
2018-11-02T20:09:02.617Z,65.61
2018-11-02T20:11:33.634Z,65.86
2018-11-02T20:14:05.274Z,66.07
2018-11-02T20:16:36.933Z,65.86
2018-11-02T20:19:08.364Z,66.00
2018-11-02T20:21:39.916Z,65.65
2018-11-02T20:24:11.308Z,66.12
2018-11-02T20:26:43.247Z,66.43
2018-11-02T20:29:15.319Z,66.08
2018-11-02T20:31:46.652Z,66.35
2018-11-02T20:34:19.974Z,66.83
2018-11-02T20:36:53.121Z,67.12
2018-11-02T20:39:24.960Z,66.76
2018-11-02T20:41:56.434Z,66.39
2018-11-02T20:44:28.180Z,66.59
2018-11-02T20:46:59.460Z,67.43
2018-11-02T20:49:31.201Z,67.67
2018-11-02T20:52:02.340Z,68.76
2018-11-02T20:54:34.630Z,67.62
2018-11-02T20:57:05.600Z,67.99
2018-11-02T20:59:36.996Z,67.50
2018-11-02T21:02:08.279Z,67.40
2018-11-02T21:04:40.454Z,67.23
2018-11-02T21:07:12.491Z,67.16
2018-11-02T21:09:43.390Z,67.64
2018-11-02T21:12:14.340Z,67.69
2018-11-02T21:14:45.314Z,67.89
2018-11-02T21:17:16.200Z,67.84
2018-11-02T21:19:46.700Z,67.64
2018-11-02T21:22:17.288Z,67.25
2018-11-02T21:24:48.000Z,67.14
2018-11-02T21:27:18.434Z,67.93
2018-11-02T21:29:48.929Z,67.63
2018-11-02T21:32:18.864Z,67.74
2018-11-02T21:34:48.822Z,67.54
2018-11-02T21:37:18.878Z,67.59
2018-11-02T21:39:48.954Z,67.74
2018-11-02T21:42:25.973Z,67.69
2018-11-02T21:44:56.161Z,67.75
2018-11-02T21:47:26.758Z,67.81
2018-11-02T21:49:57.057Z,67.85
2018-11-02T21:52:27.107Z,68.80
2018-11-02T21:54:57.344Z,68.52
2018-11-02T21:57:27.725Z,68.37
2018-11-02T21:59:57.802Z,68.56
2018-11-02T22:02:27.728Z,68.72
2018-11-02T22:04:57.728Z,69.78
2018-11-02T22:07:27.748Z,69.72
2018-11-02T22:09:57.708Z,69.98
2018-11-02T22:12:27.539Z,70.22
2018-11-02T22:14:57.509Z,70.28
2018-11-02T22:17:27.476Z,72.78
2018-11-02T22:19:57.688Z,72.85
2018-11-02T22:22:27.857Z,73.15
2018-11-02T22:24:58.225Z,71.06
2018-11-02T22:27:28.590Z,69.62
2018-11-02T22:29:58.819Z,69.41
2018-11-02T22:32:28.616Z,68.57
2018-11-02T22:34:58.862Z,68.20
2018-11-02T22:37:29.287Z,67.80
2018-11-02T22:39:59.411Z,67.89
2018-11-02T22:42:29.377Z,66.72
2018-11-02T22:44:59.580Z,66.61
2018-11-02T22:47:29.666Z,65.92
2018-11-02T22:49:59.841Z,66.01
2018-11-02T22:52:30.058Z,65.49
2018-11-02T22:54:59.802Z,65.19
2018-11-02T22:57:29.988Z,64.92
2018-11-02T22:59:59.887Z,64.89
2018-11-02T23:02:29.810Z,64.61
2018-11-02T23:04:59.975Z,64.32
2018-11-02T23:07:29.788Z,64.15
2018-11-02T23:10:00.441Z,63.69
2018-11-02T23:12:31.257Z,63.43
2018-11-02T23:15:01.098Z,63.36
2018-11-02T23:17:31.184Z,63.00
2018-11-02T23:20:01.236Z,63.09
2018-11-02T23:22:31.388Z,63.03
2018-11-02T23:25:01.552Z,62.97
2018-11-02T23:27:32.312Z,62.79
2018-11-02T23:30:03.294Z,62.28
2018-11-02T23:32:34.440Z,63.07
2018-11-02T23:35:05.785Z,63.90
2018-11-02T23:37:36.688Z,64.25
2018-11-02T23:40:08.531Z,65.04
2018-11-02T23:42:38.634Z,65.23
2018-11-02T23:45:10.852Z,66.09
2018-11-02T23:47:44.957Z,66.87
2018-11-02T23:50:15.034Z,66.99
2018-11-02T23:52:44.891Z,67.37
2018-11-02T23:55:15.421Z,67.50
2018-11-02T23:57:45.752Z,67.91
